sensor_id;sensor_type;location;lat;lon;timestamp;pressure;altitude;pressure_sealevel;temperature;humidity
62402;BME280;48440;51.224;22.506;2024-01-06T00:01:28;98504.53;;;-0.37;73.56
62402;BME280;48440;51.224;22.506;2024-01-06T00:03:53;98500.22;;;-0.38;73.74
62402;BME280;48440;51.224;22.506;2024-01-06T00:06:19;98500.00;;;-0.43;73.91
62402;BME280;48440;51.224;22.506;2024-01-06T00:08:44;98486.91;;;-0.38;73.87
62402;BME280;48440;51.224;22.506;2024-01-06T00:11:10;98498.38;;;-0.38;73.78
62402;BME280;48440;51.224;22.506;2024-01-06T00:13:35;98492.63;;;-0.41;73.98
62402;BME280;48440;51.224;22.506;2024-01-06T00:16:01;98491.81;;;-0.42;73.48
62402;BME280;48440;51.224;22.506;2024-01-06T00:18:26;98493.66;;;-0.42;73.53
62402;BME280;48440;51.224;22.506;2024-01-06T00:20:52;98492.44;;;-0.40;73.90
62402;BME280;48440;51.224;22.506;2024-01-06T00:23:18;98492.66;;;-0.35;73.45
62402;BME280;48440;51.224;22.506;2024-01-06T00:25:43;98493.88;;;-0.44;73.44
62402;BME280;48440;51.224;22.506;2024-01-06T00:28:08;98490.56;;;-0.46;73.82
62402;BME280;48440;51.224;22.506;2024-01-06T00:30:34;98496.31;;;-0.42;74.08
62402;BME280;48440;51.224;22.506;2024-01-06T00:32:59;98494.66;;;-0.50;74.34
62402;BME280;48440;51.224;22.506;2024-01-06T00:35:25;98492.63;;;-0.48;74.33
62402;BME280;48440;51.224;22.506;2024-01-06T00:37:50;98481.97;;;-0.48;74.30
62402;BME280;48440;51.224;22.506;2024-01-06T00:40:16;98481.56;;;-0.45;74.59
62402;BME280;48440;51.224;22.506;2024-01-06T00:42:41;98482.59;;;-0.46;73.79
62402;BME280;48440;51.224;22.506;2024-01-06T00:45:07;98491.41;;;-0.45;74.34
62402;BME280;48440;51.224;22.506;2024-01-06T00:47:33;98485.03;;;-0.44;74.31
62402;BME280;48440;51.224;22.506;2024-01-06T00:49:58;98494.28;;;-0.53;74.53
62402;BME280;48440;51.224;22.506;2024-01-06T00:52:23;98503.09;;;-0.46;74.18
62402;BME280;48440;51.224;22.506;2024-01-06T00:54:49;98495.50;;;-0.43;74.06
62402;BME280;48440;51.224;22.506;2024-01-06T00:57:14;98489.97;;;-0.48;74.56
62402;BME280;48440;51.224;22.506;2024-01-06T00:59:40;98493.88;;;-0.44;74.50
62402;BME280;48440;51.224;22.506;2024-01-06T01:02:05;98489.16;;;-0.42;74.62
62402;BME280;48440;51.224;22.506;2024-01-06T01:04:31;98496.31;;;-0.42;74.47
62402;BME280;48440;51.224;22.506;2024-01-06T01:06:56;98494.25;;;-0.47;74.50
62402;BME280;48440;51.224;22.506;2024-01-06T01:09:22;98490.97;;;-0.49;74.42
62402;BME280;48440;51.224;22.506;2024-01-06T01:11:47;98483.59;;;-0.47;74.42
62402;BME280;48440;51.224;22.506;2024-01-06T01:14:13;98492.63;;;-0.41;74.21
62402;BME280;48440;51.224;22.506;2024-01-06T01:16:38;98488.34;;;-0.42;74.22
62402;BME280;48440;51.224;22.506;2024-01-06T01:19:04;98487.72;;;-0.44;74.53
62402;BME280;48440;51.224;22.506;2024-01-06T01:21:29;98473.75;;;-0.46;74.49
62402;BME280;48440;51.224;22.506;2024-01-06T01:23:54;98487.31;;;-0.41;74.57
62402;BME280;48440;51.224;22.506;2024-01-06T01:26:20;98484.63;;;-0.41;74.71
62402;BME280;48440;51.224;22.506;2024-01-06T01:28:45;98493.66;;;-0.42;74.63
62402;BME280;48440;51.224;22.506;2024-01-06T01:31:12;98495.91;;;-0.39;74.36
62402;BME280;48440;51.224;22.506;2024-01-06T01:33:38;98503.09;;;-0.46;74.89
62402;BME280;48440;51.224;22.506;2024-01-06T01:36:04;98516.00;;;-0.50;75.42
62402;BME280;48440;51.224;22.506;2024-01-06T01:38:29;98506.16;;;-0.49;74.92
62402;BME280;48440;51.224;22.506;2024-01-06T01:40:55;98511.91;;;-0.52;75.04
62402;BME280;48440;51.224;22.506;2024-01-06T01:43:21;98505.94;;;-0.48;74.93
62402;BME280;48440;51.224;22.506;2024-01-06T01:45:50;98503.50;;;-0.43;75.09
62402;BME280;48440;51.224;22.506;2024-01-06T01:48:17;98505.94;;;-0.48;74.87
62402;BME280;48440;51.224;22.506;2024-01-06T01:50:43;98497.56;;;-0.45;74.54
62402;BME280;48440;51.224;22.506;2024-01-06T01:53:10;98500.81;;;-0.49;75.11
62402;BME280;48440;51.224;22.506;2024-01-06T01:55:36;98505.94;;;-0.48;74.93
62402;BME280;48440;51.224;22.506;2024-01-06T01:58:01;98499.19;;;-0.44;75.23
62402;BME280;48440;51.224;22.506;2024-01-06T02:00:27;98498.16;;;-0.43;74.92
62402;BME280;48440;51.224;22.506;2024-01-06T02:02:53;98499.41;;;-0.45;74.90
62402;BME280;48440;51.224;22.506;2024-01-06T02:05:18;98499.41;;;-0.39;74.66
62402;BME280;48440;51.224;22.506;2024-01-06T02:07:44;98492.63;;;-0.41;74.69
62402;BME280;48440;51.224;22.506;2024-01-06T02:10:09;98487.09;;;-0.40;74.69
62402;BME280;48440;51.224;22.506;2024-01-06T02:12:34;98487.72;;;-0.38;74.58
62402;BME280;48440;51.224;22.506;2024-01-06T02:15:00;98500.03;;;-0.37;74.97
62402;BME280;48440;51.224;22.506;2024-01-06T02:17:25;98498.16;;;-0.43;75.13
62402;BME280;48440;51.224;22.506;2024-01-06T02:19:51;98492.22;;;-0.38;74.92
62402;BME280;48440;51.224;22.506;2024-01-06T02:22:16;98494.09;;;-0.39;75.13
62402;BME280;48440;51.224;22.506;2024-01-06T02:24:42;98499.41;;;-0.39;75.43
62402;BME280;48440;51.224;22.506;2024-01-06T02:27:07;98492.44;;;-0.33;75.20
62402;BME280;48440;51.224;22.506;2024-01-06T02:29:33;98487.72;;;-0.38;75.50
62402;BME280;48440;51.224;22.506;2024-01-06T02:31:58;98485.66;;;-0.42;75.54
62402;BME280;48440;51.224;22.506;2024-01-06T02:34:24;98481.56;;;-0.45;75.79
62402;BME280;48440;51.224;22.506;2024-01-06T02:36:49;98467.00;;;-0.49;75.83
62402;BME280;48440;51.224;22.506;2024-01-06T02:39:15;98457.56;;;-0.45;75.79
62402;BME280;48440;51.224;22.506;2024-01-06T02:41:40;98467.00;;;-0.49;76.02
62402;BME280;48440;51.224;22.506;2024-01-06T02:44:06;98453.03;;;-0.51;75.97
62402;BME280;48440;51.224;22.506;2024-01-06T02:46:31;98454.69;;;-0.50;75.88
62402;BME280;48440;51.224;22.506;2024-01-06T02:48:57;98464.94;;;-0.47;76.06
62402;BME280;48440;51.224;22.506;2024-01-06T02:51:22;98454.47;;;-0.48;76.26
62402;BME280;48440;51.224;22.506;2024-01-06T02:53:48;98443.00;;;-0.49;76.34
62402;BME280;48440;51.224;22.506;2024-01-06T02:56:14;98458.59;;;-0.46;76.28
62402;BME280;48440;51.224;22.506;2024-01-06T02:58:39;98455.31;;;-0.48;76.52
62402;BME280;48440;51.224;22.506;2024-01-06T03:01:05;98450.78;;;-0.47;76.21
62402;BME280;48440;51.224;22.506;2024-01-06T03:03:30;98454.69;;;-0.50;76.63
62402;BME280;48440;51.224;22.506;2024-01-06T03:05:56;98451.63;;;-0.47;76.50
62402;BME280;48440;51.224;22.506;2024-01-06T03:08:21;98437.25;;;-0.46;76.29
62402;BME280;48440;51.224;22.506;2024-01-06T03:10:48;98432.13;;;-0.47;76.50
62402;BME280;48440;51.224;22.506;2024-01-06T03:13:14;98447.94;;;-0.46;76.62
62402;BME280;48440;51.224;22.506;2024-01-06T03:15:39;98441.59;;;-0.58;76.64
62402;BME280;48440;51.224;22.506;2024-01-06T03:18:05;98452.84;;;-0.62;77.20
62402;BME280;48440;51.224;22.506;2024-01-06T03:20:30;98452.25;;;-0.58;76.83
62402;BME280;48440;51.224;22.506;2024-01-06T03:22:56;98462.50;;;-0.55;77.00
62402;BME280;48440;51.224;22.506;2024-01-06T03:25:21;98470.91;;;-0.58;77.05
62402;BME280;48440;51.224;22.506;2024-01-06T03:27:47;98480.13;;;-0.60;77.14
62402;BME280;48440;51.224;22.506;2024-01-06T03:30:12;98483.59;;;-0.60;77.45
62402;BME280;48440;51.224;22.506;2024-01-06T03:32:38;98482.78;;;-0.60;77.27
62402;BME280;48440;51.224;22.506;2024-01-06T03:35:05;98477.06;;;-0.57;77.62
62402;BME280;48440;51.224;22.506;2024-01-06T03:37:32;98480.13;;;-0.60;77.25
62402;BME280;48440;51.224;22.506;2024-01-06T03:39:57;98478.69;;;-0.63;77.43
62402;BME280;48440;51.224;22.506;2024-01-06T03:42:23;98483.41;;;-0.58;77.17
62402;BME280;48440;51.224;22.506;2024-01-06T03:44:48;98475.19;;;-0.63;77.15
62402;BME280;48440;51.224;22.506;2024-01-06T03:47:14;98470.69;;;-0.56;77.59
62402;BME280;48440;51.224;22.506;2024-01-06T03:49:39;98479.31;;;-0.54;77.22
62402;BME280;48440;51.224;22.506;2024-01-06T03:52:05;98479.72;;;-0.57;77.34
62402;BME280;48440;51.224;22.506;2024-01-06T03:54:30;98474.19;;;-0.56;77.72
62402;BME280;48440;51.224;22.506;2024-01-06T03:56:56;98468.22;;;-0.58;76.94
62402;BME280;48440;51.224;22.506;2024-01-06T03:59:21;98463.50;;;-0.62;77.54
62402;BME280;48440;51.224;22.506;2024-01-06T04:01:47;98465.13;;;-0.68;77.94
62402;BME280;48440;51.224;22.506;2024-01-06T04:04:12;98468.44;;;-0.59;77.57
62402;BME280;48440;51.224;22.506;2024-01-06T04:06:37;98465.16;;;-0.61;77.50
62402;BME280;48440;51.224;22.506;2024-01-06T04:09:03;98469.66;;;-0.62;77.75
62402;BME280;48440;51.224;22.506;2024-01-06T04:11:30;98467.63;;;-0.60;77.43
62402;BME280;48440;51.224;22.506;2024-01-06T04:13:56;98465.97;;;-0.61;77.78
62402;BME280;48440;51.224;22.506;2024-01-06T04:16:21;98468.63;;;-0.61;77.53
62402;BME280;48440;51.224;22.506;2024-01-06T04:18:47;98466.78;;;-0.60;78.24
62402;BME280;48440;51.224;22.506;2024-01-06T04:21:12;98463.09;;;-0.59;78.00
62402;BME280;48440;51.224;22.506;2024-01-06T04:23:38;98466.78;;;-0.60;77.62
62402;BME280;48440;51.224;22.506;2024-01-06T04:26:03;98463.09;;;-0.66;77.99
62402;BME280;48440;51.224;22.506;2024-01-06T04:28:30;98464.53;;;-0.63;78.19
62402;BME280;48440;51.224;22.506;2024-01-06T04:30:55;98465.34;;;-0.63;78.27
62402;BME280;48440;51.224;22.506;2024-01-06T04:33:21;98453.88;;;-0.63;77.80
62402;BME280;48440;51.224;22.506;2024-01-06T04:35:46;98443.81;;;-0.68;78.50
62402;BME280;48440;51.224;22.506;2024-01-06T04:38:12;98440.13;;;-0.67;78.61
62402;BME280;48440;51.224;22.506;2024-01-06T04:40:37;98449.97;;;-0.61;78.55
62402;BME280;48440;51.224;22.506;2024-01-06T04:43:03;98448.75;;;-0.58;77.99
62402;BME280;48440;51.224;22.506;2024-01-06T04:45:29;98455.91;;;-0.65;78.30
62402;BME280;48440;51.224;22.506;2024-01-06T04:47:57;98463.72;;;-0.64;78.55
62402;BME280;48440;51.224;22.506;2024-01-06T04:50:23;98460.44;;;-0.66;78.50
62402;BME280;48440;51.224;22.506;2024-01-06T04:53:12;98473.53;;;-0.64;78.31
62402;BME280;48440;51.224;22.506;2024-01-06T04:55:40;98478.06;;;-0.58;78.20
62402;BME280;48440;51.224;22.506;2024-01-06T04:58:05;98474.59;;;-0.59;78.02
62402;BME280;48440;51.224;22.506;2024-01-06T05:00:31;98477.44;;;-0.60;78.27
62402;BME280;48440;51.224;22.506;2024-01-06T05:02:56;98458.81;;;-0.60;78.13
62402;BME280;48440;51.224;22.506;2024-01-06T05:05:21;98475.41;;;-0.58;78.16
62402;BME280;48440;51.224;22.506;2024-01-06T05:07:47;98482.59;;;-0.59;78.63
62402;BME280;48440;51.224;22.506;2024-01-06T05:10:12;98486.88;;;-0.58;78.40
62402;BME280;48440;51.224;22.506;2024-01-06T05:12:38;98477.88;;;-0.57;78.92
62402;BME280;48440;51.224;22.506;2024-01-06T05:15:04;98479.91;;;-0.59;78.69
62402;BME280;48440;51.224;22.506;2024-01-06T05:17:29;98474.16;;;-0.62;78.94
62402;BME280;48440;51.224;22.506;2024-01-06T05:19:55;98482.16;;;-0.62;78.31
62402;BME280;48440;51.224;22.506;2024-01-06T05:22:21;98484.63;;;-0.61;78.43
62402;BME280;48440;51.224;22.506;2024-01-06T05:24:46;98485.66;;;-0.62;77.91
62402;BME280;48440;51.224;22.506;2024-01-06T05:27:12;98482.16;;;-0.62;78.57
62402;BME280;48440;51.224;22.506;2024-01-06T05:29:37;98480.75;;;-0.58;78.27
62402;BME280;48440;51.224;22.506;2024-01-06T05:32:03;98493.44;;;-0.60;78.40
62402;BME280;48440;51.224;22.506;2024-01-06T05:34:29;98500.63;;;-0.61;78.21
62402;BME280;48440;51.224;22.506;2024-01-06T05:36:54;98500.81;;;-0.62;78.29
62402;BME280;48440;51.224;22.506;2024-01-06T05:39:20;98493.44;;;-0.67;78.61
62402;BME280;48440;51.224;22.506;2024-01-06T05:41:45;98501.03;;;-0.64;78.71
62402;BME280;48440;51.224;22.506;2024-01-06T05:44:10;98495.69;;;-0.64;78.63
62402;BME280;48440;51.224;22.506;2024-01-06T05:46:36;98493.84;;;-0.63;78.90
62402;BME280;48440;51.224;22.506;2024-01-06T05:49:02;98491.41;;;-0.58;78.29
62402;BME280;48440;51.224;22.506;2024-01-06T05:51:27;98491.41;;;-0.58;78.33
62402;BME280;48440;51.224;22.506;2024-01-06T05:53:53;98497.94;;;-0.61;78.43
62402;BME280;48440;51.224;22.506;2024-01-06T05:56:26;98485.63;;;-0.69;78.35
62402;BME280;48440;51.224;22.506;2024-01-06T05:58:55;98497.72;;;-0.73;78.75
62402;BME280;48440;51.224;22.506;2024-01-06T06:01:20;98489.72;;;-0.73;78.81
62402;BME280;48440;51.224;22.506;2024-01-06T06:03:47;98482.16;;;-0.69;78.81
62402;BME280;48440;51.224;22.506;2024-01-06T06:06:13;98484.59;;;-0.68;78.86
62402;BME280;48440;51.224;22.506;2024-01-06T06:08:40;98491.97;;;-0.70;78.77
62402;BME280;48440;51.224;22.506;2024-01-06T06:11:07;98496.72;;;-0.65;78.57
62402;BME280;48440;51.224;22.506;2024-01-06T06:13:40;98507.78;;;-0.68;78.49
62402;BME280;48440;51.224;22.506;2024-01-06T06:16:07;98504.69;;;-0.72;78.73
62402;BME280;48440;51.224;22.506;2024-01-06T06:18:32;98499.97;;;-0.70;79.23
62402;BME280;48440;51.224;22.506;2024-01-06T06:20:59;98497.31;;;-0.70;78.92
62402;BME280;48440;51.224;22.506;2024-01-06T06:23:25;98501.22;;;-0.65;78.79
62402;BME280;48440;51.224;22.506;2024-01-06T06:25:51;98515.75;;;-0.68;79.16
62402;BME280;48440;51.224;22.506;2024-01-06T06:28:17;98514.72;;;-0.74;79.44
62402;BME280;48440;51.224;22.506;2024-01-06T06:30:47;98509.81;;;-0.70;79.21
62402;BME280;48440;51.224;22.506;2024-01-06T06:33:16;98508.59;;;-0.68;79.07
62402;BME280;48440;51.224;22.506;2024-01-06T06:35:49;98505.72;;;-0.73;79.17
62402;BME280;48440;51.224;22.506;2024-01-06T06:38:17;98507.97;;;-0.70;79.21
62402;BME280;48440;51.224;22.506;2024-01-06T06:40:44;98524.81;;;-0.62;78.67
62402;BME280;48440;51.224;22.506;2024-01-06T06:43:10;98508.63;;;-0.61;78.50
62402;BME280;48440;51.224;22.506;2024-01-06T06:45:35;98521.72;;;-0.66;78.85
62402;BME280;48440;51.224;22.506;2024-01-06T06:48:01;98528.91;;;-0.60;79.01
62402;BME280;48440;51.224;22.506;2024-01-06T06:50:26;98529.28;;;-0.70;79.78
62402;BME280;48440;51.224;22.506;2024-01-06T06:52:52;98529.91;;;-0.68;79.36
62402;BME280;48440;51.224;22.506;2024-01-06T06:55:18;98532.78;;;-0.69;79.64
62402;BME280;48440;51.224;22.506;2024-01-06T06:57:43;98529.72;;;-0.66;79.32
62402;BME280;48440;51.224;22.506;2024-01-06T07:00:09;98525.00;;;-0.64;79.39
62402;BME280;48440;51.224;22.506;2024-01-06T07:02:35;98535.47;;;-0.62;79.52
62402;BME280;48440;51.224;22.506;2024-01-06T07:05:00;98534.44;;;-0.61;79.61
62402;BME280;48440;51.224;22.506;2024-01-06T07:07:26;98531.38;;;-0.58;79.59
62402;BME280;48440;51.224;22.506;2024-01-06T07:09:51;98524.81;;;-0.62;79.45
62402;BME280;48440;51.224;22.506;2024-01-06T07:12:17;98535.69;;;-0.57;79.18
62402;BME280;48440;51.224;22.506;2024-01-06T07:14:42;98539.78;;;-0.55;79.39
62402;BME280;48440;51.224;22.506;2024-01-06T07:17:08;98529.94;;;-0.54;79.21
62402;BME280;48440;51.224;22.506;2024-01-06T07:19:34;98537.75;;;-0.53;79.39
62402;BME280;48440;51.224;22.506;2024-01-06T07:22:00;98537.13;;;-0.55;79.32
62402;BME280;48440;51.224;22.506;2024-01-06T07:24:25;98542.25;;;-0.53;79.15
62402;BME280;48440;51.224;22.506;2024-01-06T07:26:52;98541.22;;;-0.59;79.42
62402;BME280;48440;51.224;22.506;2024-01-06T07:29:18;98546.16;;;-0.56;79.78
62402;BME280;48440;51.224;22.506;2024-01-06T07:31:44;98544.09;;;-0.47;79.00
62402;BME280;48440;51.224;22.506;2024-01-06T07:34:09;98548.81;;;-0.49;79.42
62402;BME280;48440;51.224;22.506;2024-01-06T07:36:35;98550.03;;;-0.52;79.21
62402;BME280;48440;51.224;22.506;2024-01-06T07:39:00;98543.47;;;-0.49;79.20
62402;BME280;48440;51.224;22.506;2024-01-06T07:41:26;98546.34;;;-0.51;79.35
62402;BME280;48440;51.224;22.506;2024-01-06T07:43:54;98544.69;;;-0.52;78.82
62402;BME280;48440;51.224;22.506;2024-01-06T07:46:20;98546.13;;;-0.49;79.00
62402;BME280;48440;51.224;22.506;2024-01-06T07:48:48;98553.34;;;-0.43;79.10
62402;BME280;48440;51.224;22.506;2024-01-06T07:51:14;98551.69;;;-0.44;78.94
62402;BME280;48440;51.224;22.506;2024-01-06T07:53:39;98549.84;;;-0.44;79.01
62402;BME280;48440;51.224;22.506;2024-01-06T07:56:05;98558.25;;;-0.40;78.91
62402;BME280;48440;51.224;22.506;2024-01-06T07:58:31;98555.59;;;-0.40;78.99
62402;BME280;48440;51.224;22.506;2024-01-06T08:00:58;98567.09;;;-0.40;78.88
62402;BME280;48440;51.224;22.506;2024-01-06T08:03:23;98556.19;;;-0.45;78.98
62402;BME280;48440;51.224;22.506;2024-01-06T08:05:50;98555.00;;;-0.36;78.65
62402;BME280;48440;51.224;22.506;2024-01-06T08:08:16;98564.44;;;-0.33;78.55
62402;BME280;48440;51.224;22.506;2024-01-06T08:10:42;98564.84;;;-0.36;78.21
62402;BME280;48440;51.224;22.506;2024-01-06T08:13:08;98564.44;;;-0.33;78.74
62402;BME280;48440;51.224;22.506;2024-01-06T08:15:34;98559.94;;;-0.32;78.65
62402;BME280;48440;51.224;22.506;2024-01-06T08:17:59;98560.13;;;-0.34;78.64
62402;BME280;48440;51.224;22.506;2024-01-06T08:20:25;98560.56;;;-0.30;78.50
62402;BME280;48440;51.224;22.506;2024-01-06T08:22:50;98563.84;;;-0.28;78.75
62402;BME280;48440;51.224;22.506;2024-01-06T08:25:16;98557.66;;;-0.22;78.51
62402;BME280;48440;51.224;22.506;2024-01-06T08:27:43;98559.94;;;-0.19;77.96
62402;BME280;48440;51.224;22.506;2024-01-06T08:30:09;98567.94;;;-0.19;78.42
62402;BME280;48440;51.224;22.506;2024-01-06T08:32:35;98575.53;;;-0.16;78.02
62402;BME280;48440;51.224;22.506;2024-01-06T08:35:00;98572.03;;;-0.17;77.57
62402;BME280;48440;51.224;22.506;2024-01-06T08:37:26;98582.72;;;-0.10;77.31
62402;BME280;48440;51.224;22.506;2024-01-06T08:39:51;98586.00;;;-0.15;77.64
62402;BME280;48440;51.224;22.506;2024-01-06T08:42:19;98584.16;;;-0.14;77.81
62402;BME280;48440;51.224;22.506;2024-01-06T08:44:44;98586.81;;;-0.14;77.98
62402;BME280;48440;51.224;22.506;2024-01-06T08:47:10;98600.16;;;-0.14;78.15
62402;BME280;48440;51.224;22.506;2024-01-06T08:49:36;98598.50;;;-0.15;77.63
62402;BME280;48440;51.224;22.506;2024-01-06T08:52:01;98592.34;;;-0.16;77.55
62402;BME280;48440;51.224;22.506;2024-01-06T08:54:27;98594.19;;;-0.16;77.78
62402;BME280;48440;51.224;22.506;2024-01-06T08:56:54;98589.06;;;-0.18;77.39
62402;BME280;48440;51.224;22.506;2024-01-06T08:59:20;98584.56;;;-0.11;77.78
62402;BME280;48440;51.224;22.506;2024-01-06T09:01:45;98594.00;;;-0.15;77.61
62402;BME280;48440;51.224;22.506;2024-01-06T09:04:11;98604.88;;;-0.10;77.37
62402;BME280;48440;51.224;22.506;2024-01-06T09:06:38;98599.16;;;-0.07;77.11
62402;BME280;48440;51.224;22.506;2024-01-06T09:09:04;98604.47;;;-0.07;77.67
62402;BME280;48440;51.224;22.506;2024-01-06T09:11:30;98603.03;;;0.04;76.67
62402;BME280;48440;51.224;22.506;2024-01-06T09:13:56;98602.22;;;0.04;76.84
62402;BME280;48440;51.224;22.506;2024-01-06T09:16:21;98610.84;;;0.06;76.48
62402;BME280;48440;51.224;22.506;2024-01-06T09:18:48;98611.25;;;0.09;76.67
62402;BME280;48440;51.224;22.506;2024-01-06T09:21:14;98608.38;;;0.11;76.08
62402;BME280;48440;51.224;22.506;2024-01-06T09:23:40;98597.72;;;0.11;75.82
62402;BME280;48440;51.224;22.506;2024-01-06T09:26:05;98598.13;;;0.08;75.69
62402;BME280;48440;51.224;22.506;2024-01-06T09:28:31;98599.94;;;0.00;76.27
62402;BME280;48440;51.224;22.506;2024-01-06T09:30:57;98606.09;;;-0.12;76.66
62402;BME280;48440;51.224;22.506;2024-01-06T09:33:23;98604.91;;;-0.03;76.15
62402;BME280;48440;51.224;22.506;2024-01-06T09:35:48;98606.09;;;0.01;76.04
62402;BME280;48440;51.224;22.506;2024-01-06T09:38:14;98603.25;;;-0.04;76.31
62402;BME280;48440;51.224;22.506;2024-01-06T09:40:44;98609.41;;;-0.10;76.22
62402;BME280;48440;51.224;22.506;2024-01-06T09:43:10;98599.34;;;-0.08;77.03
62402;BME280;48440;51.224;22.506;2024-01-06T09:45:36;98618.84;;;-0.08;76.23
62402;BME280;48440;51.224;22.506;2024-01-06T09:48:15;98612.91;;;-0.03;76.52
62402;BME280;48440;51.224;22.506;2024-01-06T09:50:43;98613.72;;;-0.03;76.14
62402;BME280;48440;51.224;22.506;2024-01-06T09:53:12;98614.31;;;-0.07;76.24
62402;BME280;48440;51.224;22.506;2024-01-06T09:55:38;98613.28;;;-0.13;76.28
62402;BME280;48440;51.224;22.506;2024-01-06T09:58:04;98609.38;;;-0.17;76.62
62402;BME280;48440;51.224;22.506;2024-01-06T10:00:31;98621.50;;;-0.14;76.28
62402;BME280;48440;51.224;22.506;2024-01-06T10:02:57;98625.59;;;-0.12;75.86
62402;BME280;48440;51.224;22.506;2024-01-06T10:05:23;98636.03;;;-0.17;75.75
62402;BME280;48440;51.224;22.506;2024-01-06T10:07:49;98630.69;;;-0.23;76.40
62402;BME280;48440;51.224;22.506;2024-01-06T10:10:15;98634.19;;;-0.29;76.98
62402;BME280;48440;51.224;22.506;2024-01-06T10:12:41;98638.69;;;-0.30;76.40
62402;BME280;48440;51.224;22.506;2024-01-06T10:15:08;98629.88;;;-0.30;76.91
62402;BME280;48440;51.224;22.506;2024-01-06T10:17:41;98627.63;;;-0.27;76.56
62402;BME280;48440;51.224;22.506;2024-01-06T10:20:11;98617.97;;;-0.21;76.69
62402;BME280;48440;51.224;22.506;2024-01-06T10:22:38;98625.78;;;-0.26;76.36
62402;BME280;48440;51.224;22.506;2024-01-06T10:25:06;98615.72;;;-0.24;76.82
62402;BME280;48440;51.224;22.506;2024-01-06T10:27:39;98613.88;;;-0.24;77.16
62402;BME280;48440;51.224;22.506;2024-01-06T10:30:08;98608.34;;;-0.22;76.78
62402;BME280;48440;51.224;22.506;2024-01-06T10:32:35;98607.94;;;-0.19;76.91
62402;BME280;48440;51.224;22.506;2024-01-06T10:35:02;98605.25;;;-0.19;75.75
62402;BME280;48440;51.224;22.506;2024-01-06T10:37:29;98602.19;;;-0.23;76.43
62402;BME280;48440;51.224;22.506;2024-01-06T10:42:36;98606.31;;;-0.27;76.62
62402;BME280;48440;51.224;22.506;2024-01-06T10:45:08;98614.06;;;-0.25;76.66
62402;BME280;48440;51.224;22.506;2024-01-06T10:47:35;98611.84;;;-0.28;76.60
62402;BME280;48440;51.224;22.506;2024-01-06T10:50:01;98605.44;;;-0.34;76.69
62402;BME280;48440;51.224;22.506;2024-01-06T10:52:30;98594.19;;;-0.29;77.15
62402;BME280;48440;51.224;22.506;2024-01-06T10:54:57;98598.06;;;-0.32;76.68
62402;BME280;48440;51.224;22.506;2024-01-06T10:57:23;98604.03;;;-0.30;77.20
62402;BME280;48440;51.224;22.506;2024-01-06T10:59:50;98595.22;;;-0.30;77.61
62402;BME280;48440;51.224;22.506;2024-01-06T11:02:16;98585.16;;;-0.22;76.51
62402;BME280;48440;51.224;22.506;2024-01-06T11:04:46;98587.41;;;-0.25;76.97
62402;BME280;48440;51.224;22.506;2024-01-06T11:07:19;98581.25;;;-0.26;76.73
62402;BME280;48440;51.224;22.506;2024-01-06T11:10:15;98584.13;;;-0.34;77.11
62402;BME280;48440;51.224;22.506;2024-01-06T11:12:43;98587.81;;;-0.35;76.93
62402;BME280;48440;51.224;22.506;2024-01-06T11:15:09;98597.22;;;-0.39;77.16
62402;BME280;48440;51.224;22.506;2024-01-06T11:17:53;98593.94;;;-0.41;77.82
62402;BME280;48440;51.224;22.506;2024-01-06T11:20:24;98605.03;;;-0.38;77.91
62402;BME280;48440;51.224;22.506;2024-01-06T11:22:54;98604.41;;;-0.40;77.42
62402;BME280;48440;51.224;22.506;2024-01-06T11:25:22;98604.63;;;-0.35;77.13
62402;BME280;48440;51.224;22.506;2024-01-06T11:27:49;98601.53;;;-0.38;77.16
62402;BME280;48440;51.224;22.506;2024-01-06T11:30:27;98598.06;;;-0.39;77.48
62402;BME280;48440;51.224;22.506;2024-01-06T11:32:56;98590.09;;;-0.32;77.43
62402;BME280;48440;51.224;22.506;2024-01-06T11:35:27;98581.25;;;-0.32;77.43
62402;BME280;48440;51.224;22.506;2024-01-06T11:38:00;98575.94;;;-0.32;77.31
62402;BME280;48440;51.224;22.506;2024-01-06T11:40:32;98576.16;;;-0.27;77.73
62402;BME280;48440;51.224;22.506;2024-01-06T11:45:28;98586.81;;;-0.27;77.22
62402;BME280;48440;51.224;22.506;2024-01-06T11:47:56;98586.81;;;-0.27;77.12
62402;BME280;48440;51.224;22.506;2024-01-06T11:50:24;98588.22;;;-0.31;77.51
62402;BME280;48440;51.224;22.506;2024-01-06T11:52:49;98593.34;;;-0.37;77.17
62402;BME280;48440;51.224;22.506;2024-01-06T11:55:18;98582.47;;;-0.35;77.56
62402;BME280;48440;51.224;22.506;2024-01-06T11:57:44;98585.38;;;-0.30;77.56
62402;BME280;48440;51.224;22.506;2024-01-06T12:00:10;98590.88;;;-0.25;77.01
62402;BME280;48440;51.224;22.506;2024-01-06T12:02:36;98590.69;;;-0.30;76.66
62402;BME280;48440;51.224;22.506;2024-01-06T12:05:02;98580.84;;;-0.29;77.40
62402;BME280;48440;51.224;22.506;2024-01-06T12:07:27;98591.72;;;-0.31;77.73
62402;BME280;48440;51.224;22.506;2024-01-06T12:10:03;98596.44;;;-0.26;77.95
62402;BME280;48440;51.224;22.506;2024-01-06T12:12:29;98593.34;;;-0.23;77.17
62402;BME280;48440;51.224;22.506;2024-01-06T12:14:54;98595.00;;;-0.22;77.33
62402;BME280;48440;51.224;22.506;2024-01-06T12:17:22;98593.78;;;-0.26;77.40
62402;BME280;48440;51.224;22.506;2024-01-06T12:19:53;98586.81;;;-0.27;77.90
62402;BME280;48440;51.224;22.506;2024-01-06T12:22:19;98588.84;;;-0.23;77.78
62402;BME280;48440;51.224;22.506;2024-01-06T12:24:44;98588.84;;;-0.23;78.04
62402;BME280;48440;51.224;22.506;2024-01-06T12:27:10;98594.19;;;-0.23;77.94
62402;BME280;48440;51.224;22.506;2024-01-06T12:29:40;98601.78;;;-0.26;78.20
62402;BME280;48440;51.224;22.506;2024-01-06T12:32:06;98597.25;;;-0.26;77.98
62402;BME280;48440;51.224;22.506;2024-01-06T12:34:36;98599.50;;;-0.23;77.60
62402;BME280;48440;51.224;22.506;2024-01-06T12:37:02;98614.28;;;-0.27;77.92
62402;BME280;48440;51.224;22.506;2024-01-06T12:39:29;98603.19;;;-0.24;77.66
62402;BME280;48440;51.224;22.506;2024-01-06T12:41:55;98611.63;;;-0.27;77.84
62402;BME280;48440;51.224;22.506;2024-01-06T12:44:21;98618.59;;;-0.32;78.27
62402;BME280;48440;51.224;22.506;2024-01-06T12:46:47;98617.13;;;-0.35;78.17
62402;BME280;48440;51.224;22.506;2024-01-06T12:49:13;98616.72;;;-0.39;78.33
62402;BME280;48440;51.224;22.506;2024-01-06T12:51:41;98616.75;;;-0.32;77.91